sensor_id;sensor_type;location;lat;lon;timestamp;pressure;altitude;pressure_sealevel;temperature
73937;BMP180;59249;59.736;30.568;2024-01-15T00:02:14;98132.00;;;-10.30
73937;BMP180;59249;59.736;30.568;2024-01-15T00:04:42;98131.00;;;-10.30
73937;BMP180;59249;59.736;30.568;2024-01-15T00:07:11;98126.00;;;-10.30
73937;BMP180;59249;59.736;30.568;2024-01-15T00:09:40;98137.00;;;-10.40
73937;BMP180;59249;59.736;30.568;2024-01-15T00:12:11;98123.00;;;-10.40
73937;BMP180;59249;59.736;30.568;2024-01-15T00:14:39;98132.00;;;-10.30
73937;BMP180;59249;59.736;30.568;2024-01-15T00:17:09;98135.00;;;-10.30
73937;BMP180;59249;59.736;30.568;2024-01-15T00:19:38;98134.00;;;-10.30
73937;BMP180;59249;59.736;30.568;2024-01-15T00:22:07;98142.00;;;-10.40
73937;BMP180;59249;59.736;30.568;2024-01-15T00:24:36;98143.00;;;-10.30
73937;BMP180;59249;59.736;30.568;2024-01-15T00:27:05;98140.00;;;-10.30
73937;BMP180;59249;59.736;30.568;2024-01-15T00:29:35;98140.00;;;-10.20
73937;BMP180;59249;59.736;30.568;2024-01-15T00:32:05;98140.00;;;-10.20
73937;BMP180;59249;59.736;30.568;2024-01-15T00:34:34;98135.00;;;-10.20
73937;BMP180;59249;59.736;30.568;2024-01-15T00:37:03;98131.00;;;-10.20
73937;BMP180;59249;59.736;30.568;2024-01-15T00:39:34;98134.00;;;-10.30
73937;BMP180;59249;59.736;30.568;2024-01-15T00:42:03;98133.00;;;-10.30
73937;BMP180;59249;59.736;30.568;2024-01-15T00:44:32;98131.00;;;-10.20
73937;BMP180;59249;59.736;30.568;2024-01-15T00:47:02;98139.00;;;-10.20
73937;BMP180;59249;59.736;30.568;2024-01-15T00:49:31;98121.00;;;-10.20
73937;BMP180;59249;59.736;30.568;2024-01-15T00:52:00;98120.00;;;-10.20
73937;BMP180;59249;59.736;30.568;2024-01-15T00:54:29;98115.00;;;-10.30
73937;BMP180;59249;59.736;30.568;2024-01-15T00:56:57;98098.00;;;-10.20
73937;BMP180;59249;59.736;30.568;2024-01-15T00:59:26;98100.00;;;-10.20
73937;BMP180;59249;59.736;30.568;2024-01-15T01:01:55;98097.00;;;-10.20
73937;BMP180;59249;59.736;30.568;2024-01-15T01:04:25;98088.00;;;-10.20
73937;BMP180;59249;59.736;30.568;2024-01-15T01:06:54;98086.00;;;-10.10
73937;BMP180;59249;59.736;30.568;2024-01-15T01:09:23;98081.00;;;-10.20
73937;BMP180;59249;59.736;30.568;2024-01-15T01:11:52;98072.00;;;-10.20
73937;BMP180;59249;59.736;30.568;2024-01-15T01:14:21;98068.00;;;-10.20
73937;BMP180;59249;59.736;30.568;2024-01-15T01:16:50;98082.00;;;-10.30
73937;BMP180;59249;59.736;30.568;2024-01-15T01:19:18;98069.00;;;-10.20
73937;BMP180;59249;59.736;30.568;2024-01-15T01:21:49;98064.00;;;-10.20
73937;BMP180;59249;59.736;30.568;2024-01-15T01:24:18;98065.00;;;-10.20
73937;BMP180;59249;59.736;30.568;2024-01-15T01:26:47;98060.00;;;-10.20
73937;BMP180;59249;59.736;30.568;2024-01-15T01:29:16;98071.00;;;-10.20
73937;BMP180;59249;59.736;30.568;2024-01-15T01:31:45;98066.00;;;-10.20
73937;BMP180;59249;59.736;30.568;2024-01-15T01:34:15;98064.00;;;-10.20
73937;BMP180;59249;59.736;30.568;2024-01-15T01:36:44;98062.00;;;-10.20
73937;BMP180;59249;59.736;30.568;2024-01-15T01:39:15;98057.00;;;-10.20
73937;BMP180;59249;59.736;30.568;2024-01-15T01:41:44;98060.00;;;-10.20
73937;BMP180;59249;59.736;30.568;2024-01-15T01:44:13;98060.00;;;-10.10
73937;BMP180;59249;59.736;30.568;2024-01-15T01:46:42;98055.00;;;-10.10
73937;BMP180;59249;59.736;30.568;2024-01-15T01:49:11;98064.00;;;-10.10
73937;BMP180;59249;59.736;30.568;2024-01-15T01:51:40;98051.00;;;-10.20
73937;BMP180;59249;59.736;30.568;2024-01-15T01:54:09;98061.00;;;-10.10
73937;BMP180;59249;59.736;30.568;2024-01-15T01:56:42;98053.00;;;-10.20
73937;BMP180;59249;59.736;30.568;2024-01-15T01:59:12;98052.00;;;-10.20
73937;BMP180;59249;59.736;30.568;2024-01-15T02:01:41;98049.00;;;-10.10
73937;BMP180;59249;59.736;30.568;2024-01-15T02:04:11;98050.00;;;-10.00
73937;BMP180;59249;59.736;30.568;2024-01-15T02:06:43;98050.00;;;-10.10
73937;BMP180;59249;59.736;30.568;2024-01-15T02:09:12;98052.00;;;-10.10
73937;BMP180;59249;59.736;30.568;2024-01-15T02:11:46;98046.00;;;-10.10
73937;BMP180;59249;59.736;30.568;2024-01-15T02:14:15;98049.00;;;-10.20
73937;BMP180;59249;59.736;30.568;2024-01-15T02:16:45;98040.00;;;-10.10
73937;BMP180;59249;59.736;30.568;2024-01-15T02:19:17;98048.00;;;-10.10
73937;BMP180;59249;59.736;30.568;2024-01-15T02:21:47;98043.00;;;-10.10
73937;BMP180;59249;59.736;30.568;2024-01-15T02:24:18;98058.00;;;-10.00
73937;BMP180;59249;59.736;30.568;2024-01-15T02:26:47;98040.00;;;-10.10
73937;BMP180;59249;59.736;30.568;2024-01-15T02:29:17;98048.00;;;-10.10
73937;BMP180;59249;59.736;30.568;2024-01-15T02:31:46;98043.00;;;-10.00
73937;BMP180;59249;59.736;30.568;2024-01-15T02:34:15;98037.00;;;-10.10
73937;BMP180;59249;59.736;30.568;2024-01-15T02:36:45;98047.00;;;-10.00
73937;BMP180;59249;59.736;30.568;2024-01-15T02:39:14;98044.00;;;-10.00
73937;BMP180;59249;59.736;30.568;2024-01-15T02:41:44;98036.00;;;-10.10
73937;BMP180;59249;59.736;30.568;2024-01-15T02:44:13;98044.00;;;-10.00
73937;BMP180;59249;59.736;30.568;2024-01-15T02:46:42;98025.00;;;-10.00
73937;BMP180;59249;59.736;30.568;2024-01-15T02:49:11;98022.00;;;-9.90
73937;BMP180;59249;59.736;30.568;2024-01-15T02:51:40;98028.00;;;-9.90
73937;BMP180;59249;59.736;30.568;2024-01-15T02:54:09;98018.00;;;-9.90
73937;BMP180;59249;59.736;30.568;2024-01-15T02:56:38;98015.00;;;-9.90
73937;BMP180;59249;59.736;30.568;2024-01-15T02:59:08;98016.00;;;-9.90
73937;BMP180;59249;59.736;30.568;2024-01-15T03:01:37;98013.00;;;-9.80
73937;BMP180;59249;59.736;30.568;2024-01-15T03:04:06;98013.00;;;-9.90
73937;BMP180;59249;59.736;30.568;2024-01-15T03:06:35;98006.00;;;-9.90
73937;BMP180;59249;59.736;30.568;2024-01-15T03:09:04;98002.00;;;-9.80
73937;BMP180;59249;59.736;30.568;2024-01-15T03:11:37;98003.00;;;-9.80
73937;BMP180;59249;59.736;30.568;2024-01-15T03:14:07;98001.00;;;-9.80
73937;BMP180;59249;59.736;30.568;2024-01-15T03:16:37;98002.00;;;-9.70
73937;BMP180;59249;59.736;30.568;2024-01-15T03:19:05;98002.00;;;-9.70
73937;BMP180;59249;59.736;30.568;2024-01-15T03:21:35;98011.00;;;-9.70
73937;BMP180;59249;59.736;30.568;2024-01-15T03:24:04;97995.00;;;-9.70
73937;BMP180;59249;59.736;30.568;2024-01-15T03:26:33;97998.00;;;-9.80
73937;BMP180;59249;59.736;30.568;2024-01-15T03:29:02;97991.00;;;-9.70
73937;BMP180;59249;59.736;30.568;2024-01-15T03:31:33;97986.00;;;-9.80
73937;BMP180;59249;59.736;30.568;2024-01-15T03:34:02;97986.00;;;-9.80
73937;BMP180;59249;59.736;30.568;2024-01-15T03:36:31;97990.00;;;-9.80
73937;BMP180;59249;59.736;30.568;2024-01-15T03:39:00;97990.00;;;-9.70
73937;BMP180;59249;59.736;30.568;2024-01-15T03:41:29;97983.00;;;-9.80
73937;BMP180;59249;59.736;30.568;2024-01-15T03:43:58;97984.00;;;-9.80
73937;BMP180;59249;59.736;30.568;2024-01-15T03:46:27;97986.00;;;-9.80
73937;BMP180;59249;59.736;30.568;2024-01-15T03:48:58;97981.00;;;-9.70
73937;BMP180;59249;59.736;30.568;2024-01-15T03:51:27;97989.00;;;-9.80
73937;BMP180;59249;59.736;30.568;2024-01-15T03:53:56;97976.00;;;-9.80
73937;BMP180;59249;59.736;30.568;2024-01-15T03:56:26;97977.00;;;-9.70
73937;BMP180;59249;59.736;30.568;2024-01-15T03:58:55;97983.00;;;-9.70
73937;BMP180;59249;59.736;30.568;2024-01-15T04:01:23;97978.00;;;-9.70
73937;BMP180;59249;59.736;30.568;2024-01-15T04:03:52;97976.00;;;-9.80
73937;BMP180;59249;59.736;30.568;2024-01-15T04:06:23;97970.00;;;-9.70
73937;BMP180;59249;59.736;30.568;2024-01-15T04:08:52;97967.00;;;-9.70
73937;BMP180;59249;59.736;30.568;2024-01-15T04:11:21;97971.00;;;-9.70
73937;BMP180;59249;59.736;30.568;2024-01-15T04:13:50;97968.00;;;-9.80
73937;BMP180;59249;59.736;30.568;2024-01-15T04:16:19;97966.00;;;-9.80
73937;BMP180;59249;59.736;30.568;2024-01-15T04:18:48;97959.00;;;-9.80
73937;BMP180;59249;59.736;30.568;2024-01-15T04:21:18;97962.00;;;-9.70
73937;BMP180;59249;59.736;30.568;2024-01-15T04:23:48;97962.00;;;-9.70
73937;BMP180;59249;59.736;30.568;2024-01-15T04:26:17;97960.00;;;-9.60
73937;BMP180;59249;59.736;30.568;2024-01-15T04:28:46;97956.00;;;-9.60
73937;BMP180;59249;59.736;30.568;2024-01-15T04:31:23;97955.00;;;-9.50
73937;BMP180;59249;59.736;30.568;2024-01-15T04:33:54;97952.00;;;-9.60
73937;BMP180;59249;59.736;30.568;2024-01-15T04:36:23;97959.00;;;-9.60
73937;BMP180;59249;59.736;30.568;2024-01-15T04:38:54;97957.00;;;-9.70
73937;BMP180;59249;59.736;30.568;2024-01-15T04:41:23;97948.00;;;-9.60
73937;BMP180;59249;59.736;30.568;2024-01-15T04:43:52;97953.00;;;-9.60
73937;BMP180;59249;59.736;30.568;2024-01-15T04:46:21;97945.00;;;-9.60
73937;BMP180;59249;59.736;30.568;2024-01-15T04:48:50;97956.00;;;-9.50
73937;BMP180;59249;59.736;30.568;2024-01-15T04:51:19;97960.00;;;-9.50
73937;BMP180;59249;59.736;30.568;2024-01-15T04:53:48;97950.00;;;-9.50
73937;BMP180;59249;59.736;30.568;2024-01-15T04:56:18;97943.00;;;-9.50
73937;BMP180;59249;59.736;30.568;2024-01-15T04:58:48;97946.00;;;-9.50
73937;BMP180;59249;59.736;30.568;2024-01-15T05:01:17;97953.00;;;-9.50
73937;BMP180;59249;59.736;30.568;2024-01-15T05:03:46;97955.00;;;-9.50
73937;BMP180;59249;59.736;30.568;2024-01-15T05:06:25;97954.00;;;-9.50
73937;BMP180;59249;59.736;30.568;2024-01-15T05:08:54;97939.00;;;-9.40
73937;BMP180;59249;59.736;30.568;2024-01-15T05:11:25;97939.00;;;-9.40
73937;BMP180;59249;59.736;30.568;2024-01-15T05:13:54;97930.00;;;-9.40
73937;BMP180;59249;59.736;30.568;2024-01-15T05:16:24;97932.00;;;-9.50
73937;BMP180;59249;59.736;30.568;2024-01-15T05:18:53;97943.00;;;-9.40
73937;BMP180;59249;59.736;30.568;2024-01-15T05:21:22;97941.00;;;-9.50
73937;BMP180;59249;59.736;30.568;2024-01-15T05:23:51;97942.00;;;-9.50
73937;BMP180;59249;59.736;30.568;2024-01-15T05:26:20;97941.00;;;-9.50
73937;BMP180;59249;59.736;30.568;2024-01-15T05:28:51;97931.00;;;-9.50
73937;BMP180;59249;59.736;30.568;2024-01-15T05:31:20;97935.00;;;-9.40
73937;BMP180;59249;59.736;30.568;2024-01-15T05:33:49;97931.00;;;-9.40
73937;BMP180;59249;59.736;30.568;2024-01-15T05:36:21;97929.00;;;-9.50
73937;BMP180;59249;59.736;30.568;2024-01-15T05:38:51;97930.00;;;-9.40
73937;BMP180;59249;59.736;30.568;2024-01-15T05:41:23;97929.00;;;-9.40
73937;BMP180;59249;59.736;30.568;2024-01-15T05:43:58;97920.00;;;-9.40
73937;BMP180;59249;59.736;30.568;2024-01-15T05:46:30;97928.00;;;-9.40
73937;BMP180;59249;59.736;30.568;2024-01-15T05:48:59;97927.00;;;-9.40
73937;BMP180;59249;59.736;30.568;2024-01-15T05:51:30;97930.00;;;-9.40
73937;BMP180;59249;59.736;30.568;2024-01-15T05:53:59;97931.00;;;-9.40
73937;BMP180;59249;59.736;30.568;2024-01-15T05:56:28;97938.00;;;-9.40
73937;BMP180;59249;59.736;30.568;2024-01-15T05:58:59;97929.00;;;-9.40
73937;BMP180;59249;59.736;30.568;2024-01-15T06:01:31;97932.00;;;-9.40
73937;BMP180;59249;59.736;30.568;2024-01-15T06:04:00;97940.00;;;-9.40
73937;BMP180;59249;59.736;30.568;2024-01-15T06:06:29;97930.00;;;-9.50
73937;BMP180;59249;59.736;30.568;2024-01-15T06:08:59;97924.00;;;-9.40
73937;BMP180;59249;59.736;30.568;2024-01-15T06:11:34;97932.00;;;-9.40
73937;BMP180;59249;59.736;30.568;2024-01-15T06:14:05;97930.00;;;-9.40
73937;BMP180;59249;59.736;30.568;2024-01-15T06:16:34;97936.00;;;-9.30
73937;BMP180;59249;59.736;30.568;2024-01-15T06:19:03;97937.00;;;-9.40
73937;BMP180;59249;59.736;30.568;2024-01-15T06:21:33;97934.00;;;-9.30
73937;BMP180;59249;59.736;30.568;2024-01-15T06:24:02;97932.00;;;-9.30
73937;BMP180;59249;59.736;30.568;2024-01-15T06:26:32;97934.00;;;-9.40
73937;BMP180;59249;59.736;30.568;2024-01-15T06:29:01;97935.00;;;-9.30
73937;BMP180;59249;59.736;30.568;2024-01-15T06:31:31;97930.00;;;-9.30
73937;BMP180;59249;59.736;30.568;2024-01-15T06:34:00;97944.00;;;-9.20
73937;BMP180;59249;59.736;30.568;2024-01-15T06:36:30;97938.00;;;-9.20
73937;BMP180;59249;59.736;30.568;2024-01-15T06:38:58;97942.00;;;-9.30
73937;BMP180;59249;59.736;30.568;2024-01-15T06:41:27;97945.00;;;-9.30
73937;BMP180;59249;59.736;30.568;2024-01-15T06:43:56;97945.00;;;-9.30
73937;BMP180;59249;59.736;30.568;2024-01-15T06:46:25;97938.00;;;-9.20
73937;BMP180;59249;59.736;30.568;2024-01-15T06:48:56;97941.00;;;-9.30
73937;BMP180;59249;59.736;30.568;2024-01-15T06:51:26;97937.00;;;-9.30
73937;BMP180;59249;59.736;30.568;2024-01-15T06:53:58;97940.00;;;-9.20
73937;BMP180;59249;59.736;30.568;2024-01-15T06:56:27;97942.00;;;-9.30
73937;BMP180;59249;59.736;30.568;2024-01-15T06:58:56;97944.00;;;-9.20
73937;BMP180;59249;59.736;30.568;2024-01-15T07:01:25;97932.00;;;-9.20
73937;BMP180;59249;59.736;30.568;2024-01-15T07:03:56;97941.00;;;-9.20
73937;BMP180;59249;59.736;30.568;2024-01-15T07:06:26;97936.00;;;-9.20
73937;BMP180;59249;59.736;30.568;2024-01-15T07:08:59;97937.00;;;-9.20
73937;BMP180;59249;59.736;30.568;2024-01-15T07:11:28;97938.00;;;-9.20
73937;BMP180;59249;59.736;30.568;2024-01-15T07:13:57;97924.00;;;-9.10
73937;BMP180;59249;59.736;30.568;2024-01-15T07:16:26;97935.00;;;-9.00
73937;BMP180;59249;59.736;30.568;2024-01-15T07:19:05;97934.00;;;-9.10
73937;BMP180;59249;59.736;30.568;2024-01-15T07:21:35;97927.00;;;-9.00
73937;BMP180;59249;59.736;30.568;2024-01-15T07:24:07;97929.00;;;-9.00
73937;BMP180;59249;59.736;30.568;2024-01-15T07:26:36;97924.00;;;-9.00
73937;BMP180;59249;59.736;30.568;2024-01-15T07:29:05;97931.00;;;-8.90
73937;BMP180;59249;59.736;30.568;2024-01-15T07:31:37;97928.00;;;-8.90
73937;BMP180;59249;59.736;30.568;2024-01-15T07:34:08;97919.00;;;-8.90
73937;BMP180;59249;59.736;30.568;2024-01-15T07:36:38;97919.00;;;-8.90
73937;BMP180;59249;59.736;30.568;2024-01-15T07:39:07;97920.00;;;-8.80
73937;BMP180;59249;59.736;30.568;2024-01-15T07:41:36;97922.00;;;-8.80
73937;BMP180;59249;59.736;30.568;2024-01-15T07:44:07;97925.00;;;-8.80
73937;BMP180;59249;59.736;30.568;2024-01-15T07:46:38;97920.00;;;-8.70
73937;BMP180;59249;59.736;30.568;2024-01-15T07:49:09;97924.00;;;-8.70
73937;BMP180;59249;59.736;30.568;2024-01-15T07:51:40;97921.00;;;-8.70
73937;BMP180;59249;59.736;30.568;2024-01-15T07:54:11;97927.00;;;-8.60
73937;BMP180;59249;59.736;30.568;2024-01-15T07:56:54;97925.00;;;-8.60
73937;BMP180;59249;59.736;30.568;2024-01-15T07:59:25;97923.00;;;-8.50
73937;BMP180;59249;59.736;30.568;2024-01-15T08:01:54;97927.00;;;-8.60
73937;BMP180;59249;59.736;30.568;2024-01-15T08:04:25;97933.00;;;-8.50
73937;BMP180;59249;59.736;30.568;2024-01-15T08:06:55;97933.00;;;-8.60
73937;BMP180;59249;59.736;30.568;2024-01-15T08:09:24;97922.00;;;-8.50
73937;BMP180;59249;59.736;30.568;2024-01-15T08:11:54;97926.00;;;-8.50
73937;BMP180;59249;59.736;30.568;2024-01-15T08:14:25;97922.00;;;-8.40
73937;BMP180;59249;59.736;30.568;2024-01-15T08:16:54;97920.00;;;-8.50
73937;BMP180;59249;59.736;30.568;2024-01-15T08:19:25;97929.00;;;-8.50
73937;BMP180;59249;59.736;30.568;2024-01-15T08:21:54;97908.00;;;-8.50
73937;BMP180;59249;59.736;30.568;2024-01-15T08:24:23;97914.00;;;-8.60
73937;BMP180;59249;59.736;30.568;2024-01-15T08:26:52;97914.00;;;-8.50
73937;BMP180;59249;59.736;30.568;2024-01-15T08:29:22;97923.00;;;-8.60
73937;BMP180;59249;59.736;30.568;2024-01-15T08:31:52;97928.00;;;-8.40
73937;BMP180;59249;59.736;30.568;2024-01-15T08:34:21;97916.00;;;-8.30
73937;BMP180;59249;59.736;30.568;2024-01-15T08:36:54;97916.00;;;-8.30
73937;BMP180;59249;59.736;30.568;2024-01-15T08:39:23;97915.00;;;-8.30
73937;BMP180;59249;59.736;30.568;2024-01-15T08:41:55;97915.00;;;-8.30
73937;BMP180;59249;59.736;30.568;2024-01-15T08:44:24;97910.00;;;-8.30
73937;BMP180;59249;59.736;30.568;2024-01-15T08:46:53;97901.00;;;-8.30
73937;BMP180;59249;59.736;30.568;2024-01-15T08:49:22;97908.00;;;-8.20
73937;BMP180;59249;59.736;30.568;2024-01-15T08:51:53;97905.00;;;-8.30
73937;BMP180;59249;59.736;30.568;2024-01-15T08:54:23;97897.00;;;-8.10
73937;BMP180;59249;59.736;30.568;2024-01-15T08:56:53;97907.00;;;-8.00
73937;BMP180;59249;59.736;30.568;2024-01-15T08:59:23;97891.00;;;-8.10
73937;BMP180;59249;59.736;30.568;2024-01-15T09:01:53;97901.00;;;-8.00
73937;BMP180;59249;59.736;30.568;2024-01-15T09:04:24;97892.00;;;-8.00
73937;BMP180;59249;59.736;30.568;2024-01-15T09:06:56;97900.00;;;-8.00
73937;BMP180;59249;59.736;30.568;2024-01-15T09:09:25;97903.00;;;-7.90
73937;BMP180;59249;59.736;30.568;2024-01-15T09:11:54;97900.00;;;-8.00
73937;BMP180;59249;59.736;30.568;2024-01-15T09:14:24;97900.00;;;-7.90
73937;BMP180;59249;59.736;30.568;2024-01-15T09:17:04;97901.00;;;-7.90
73937;BMP180;59249;59.736;30.568;2024-01-15T09:19:36;97897.00;;;-8.00
73937;BMP180;59249;59.736;30.568;2024-01-15T09:22:09;97887.00;;;-7.80
73937;BMP180;59249;59.736;30.568;2024-01-15T09:24:40;97899.00;;;-7.80
73937;BMP180;59249;59.736;30.568;2024-01-15T09:27:10;97896.00;;;-7.70
73937;BMP180;59249;59.736;30.568;2024-01-15T09:29:40;97905.00;;;-7.70
73937;BMP180;59249;59.736;30.568;2024-01-15T09:32:15;97904.00;;;-7.70
73937;BMP180;59249;59.736;30.568;2024-01-15T09:34:46;97905.00;;;-7.60
73937;BMP180;59249;59.736;30.568;2024-01-15T09:37:17;97880.00;;;-7.70
73937;BMP180;59249;59.736;30.568;2024-01-15T09:40:08;97900.00;;;-7.60
73937;BMP180;59249;59.736;30.568;2024-01-15T09:42:41;97898.00;;;-7.50
73937;BMP180;59249;59.736;30.568;2024-01-15T09:45:12;97897.00;;;-7.60
73937;BMP180;59249;59.736;30.568;2024-01-15T09:47:45;97896.00;;;-7.50
73937;BMP180;59249;59.736;30.568;2024-01-15T09:50:19;97889.00;;;-7.50
73937;BMP180;59249;59.736;30.568;2024-01-15T09:52:55;97889.00;;;-7.50
73937;BMP180;59249;59.736;30.568;2024-01-15T09:55:25;97891.00;;;-7.50
73937;BMP180;59249;59.736;30.568;2024-01-15T09:57:56;97891.00;;;-7.50
73937;BMP180;59249;59.736;30.568;2024-01-15T10:00:30;97895.00;;;-7.60
73937;BMP180;59249;59.736;30.568;2024-01-15T10:03:00;97882.00;;;-7.50
73937;BMP180;59249;59.736;30.568;2024-01-15T10:05:36;97877.00;;;-7.60
73937;BMP180;59249;59.736;30.568;2024-01-15T10:08:09;97888.00;;;-7.50
73937;BMP180;59249;59.736;30.568;2024-01-15T10:10:40;97881.00;;;-7.50
73937;BMP180;59249;59.736;30.568;2024-01-15T10:13:13;97889.00;;;-7.50
73937;BMP180;59249;59.736;30.568;2024-01-15T10:15:45;97875.00;;;-7.60
73937;BMP180;59249;59.736;30.568;2024-01-15T10:18:15;97870.00;;;-7.70
73937;BMP180;59249;59.736;30.568;2024-01-15T10:20:49;97881.00;;;-7.50
73937;BMP180;59249;59.736;30.568;2024-01-15T10:23:28;97877.00;;;-7.40
73937;BMP180;59249;59.736;30.568;2024-01-15T10:25:58;97897.00;;;-7.40
73937;BMP180;59249;59.736;30.568;2024-01-15T10:28:34;97888.00;;;-7.40
73937;BMP180;59249;59.736;30.568;2024-01-15T10:31:04;97881.00;;;-7.40
73937;BMP180;59249;59.736;30.568;2024-01-15T10:33:37;97873.00;;;-7.40
73937;BMP180;59249;59.736;30.568;2024-01-15T10:36:16;97876.00;;;-7.50
73937;BMP180;59249;59.736;30.568;2024-01-15T10:38:49;97873.00;;;-7.50
73937;BMP180;59249;59.736;30.568;2024-01-15T10:41:23;97876.00;;;-7.50
73937;BMP180;59249;59.736;30.568;2024-01-15T10:43:53;97872.00;;;-7.40
73937;BMP180;59249;59.736;30.568;2024-01-15T10:46:30;97877.00;;;-7.20
73937;BMP180;59249;59.736;30.568;2024-01-15T10:49:02;97883.00;;;-7.20
73937;BMP180;59249;59.736;30.568;2024-01-15T10:51:35;97875.00;;;-7.20
73937;BMP180;59249;59.736;30.568;2024-01-15T10:54:09;97864.00;;;-7.20
73937;BMP180;59249;59.736;30.568;2024-01-15T10:56:42;97870.00;;;-7.10
73937;BMP180;59249;59.736;30.568;2024-01-15T10:59:15;97863.00;;;-7.10
73937;BMP180;59249;59.736;30.568;2024-01-15T11:01:45;97867.00;;;-7.00
73937;BMP180;59249;59.736;30.568;2024-01-15T11:04:22;97853.00;;;-6.90
73937;BMP180;59249;59.736;30.568;2024-01-15T11:06:56;97856.00;;;-7.10
73937;BMP180;59249;59.736;30.568;2024-01-15T11:09:28;97863.00;;;-7.00
73937;BMP180;59249;59.736;30.568;2024-01-15T11:12:07;97871.00;;;-7.00
73937;BMP180;59249;59.736;30.568;2024-01-15T11:14:40;97869.00;;;-7.20
73937;BMP180;59249;59.736;30.568;2024-01-15T11:17:11;97863.00;;;-7.10
73937;BMP180;59249;59.736;30.568;2024-01-15T11:19:48;97874.00;;;-7.00
73937;BMP180;59249;59.736;30.568;2024-01-15T11:22:49;97870.00;;;-7.10
73937;BMP180;59249;59.736;30.568;2024-01-15T11:25:21;97867.00;;;-7.00
73937;BMP180;59249;59.736;30.568;2024-01-15T11:27:52;97864.00;;;-7.20
73937;BMP180;59249;59.736;30.568;2024-01-15T11:30:25;97865.00;;;-7.10
73937;BMP180;59249;59.736;30.568;2024-01-15T11:33:05;97862.00;;;-7.10
73937;BMP180;59249;59.736;30.568;2024-01-15T11:36:02;97862.00;;;-7.10
73937;BMP180;59249;59.736;30.568;2024-01-15T11:38:32;97855.00;;;-7.30
73937;BMP180;59249;59.736;30.568;2024-01-15T11:41:13;97849.00;;;-7.20
73937;BMP180;59249;59.736;30.568;2024-01-15T11:43:43;97847.00;;;-7.20
73937;BMP180;59249;59.736;30.568;2024-01-15T11:46:18;97846.00;;;-7.40
73937;BMP180;59249;59.736;30.568;2024-01-15T11:48:53;97844.00;;;-7.40
73937;BMP180;59249;59.736;30.568;2024-01-15T11:51:34;97840.00;;;-7.30
73937;BMP180;59249;59.736;30.568;2024-01-15T11:54:12;97842.00;;;-7.30
73937;BMP180;59249;59.736;30.568;2024-01-15T11:56:49;97841.00;;;-7.30
73937;BMP180;59249;59.736;30.568;2024-01-15T11:59:21;97850.00;;;-7.20
73937;BMP180;59249;59.736;30.568;2024-01-15T12:01:52;97840.00;;;-7.30
73937;BMP180;59249;59.736;30.568;2024-01-15T12:04:22;97842.00;;;-7.30
73937;BMP180;59249;59.736;30.568;2024-01-15T12:06:51;97844.00;;;-7.20
73937;BMP180;59249;59.736;30.568;2024-01-15T12:09:20;97840.00;;;-7.20
73937;BMP180;59249;59.736;30.568;2024-01-15T12:11:57;97842.00;;;-7.20
73937;BMP180;59249;59.736;30.568;2024-01-15T12:14:48;97839.00;;;-7.20
73937;BMP180;59249;59.736;30.568;2024-01-15T12:17:17;97831.00;;;-7.30
73937;BMP180;59249;59.736;30.568;2024-01-15T12:19:48;97831.00;;;-7.30
73937;BMP180;59249;59.736;30.568;2024-01-15T12:22:20;97829.00;;;-7.30
73937;BMP180;59249;59.736;30.568;2024-01-15T12:24:50;97831.00;;;-7.30
73937;BMP180;59249;59.736;30.568;2024-01-15T12:27:22;97832.00;;;-7.50
73937;BMP180;59249;59.736;30.568;2024-01-15T12:29:58;97829.00;;;-7.50
73937;BMP180;59249;59.736;30.568;2024-01-15T12:32:32;97822.00;;;-7.50
73937;BMP180;59249;59.736;30.568;2024-01-15T12:35:01;97822.00;;;-7.60
73937;BMP180;59249;59.736;30.568;2024-01-15T12:37:31;97814.00;;;-7.60
73937;BMP180;59249;59.736;30.568;2024-01-15T12:40:08;97811.00;;;-7.60
73937;BMP180;59249;59.736;30.568;2024-01-15T12:42:41;97812.00;;;-7.60
73937;BMP180;59249;59.736;30.568;2024-01-15T12:45:13;97814.00;;;-7.70
73937;BMP180;59249;59.736;30.568;2024-01-15T12:47:42;97811.00;;;-7.80
73937;BMP180;59249;59.736;30.568;2024-01-15T12:50:12;97806.00;;;-7.70
73937;BMP180;59249;59.736;30.568;2024-01-15T12:52:47;97801.00;;;-7.70
73937;BMP180;59249;59.736;30.568;2024-01-15T12:55:16;97806.00;;;-7.80
73937;BMP180;59249;59.736;30.568;2024-01-15T12:57:46;97805.00;;;-7.80
73937;BMP180;59249;59.736;30.568;2024-01-15T13:00:17;97810.00;;;-7.80
73937;BMP180;59249;59.736;30.568;2024-01-15T13:02:50;97814.00;;;-7.80
73937;BMP180;59249;59.736;30.568;2024-01-15T13:05:21;97812.00;;;-7.80
73937;BMP180;59249;59.736;30.568;2024-01-15T13:07:53;97816.00;;;-7.80
73937;BMP180;59249;59.736;30.568;2024-01-15T13:10:22;97808.00;;;-7.90
73937;BMP180;59249;59.736;30.568;2024-01-15T13:12:54;97807.00;;;-8.00
73937;BMP180;59249;59.736;30.568;2024-01-15T13:15:25;97811.00;;;-7.90
73937;BMP180;59249;59.736;30.568;2024-01-15T13:17:54;97805.00;;;-8.00
73937;BMP180;59249;59.736;30.568;2024-01-15T13:20:23;97810.00;;;-8.00
73937;BMP180;59249;59.736;30.568;2024-01-15T13:22:52;97808.00;;;-7.90
73937;BMP180;59249;59.736;30.568;2024-01-15T13:25:23;97809.00;;;-8.00
73937;BMP180;59249;59.736;30.568;2024-01-15T13:27:53;97803.00;;;-8.00
73937;BMP180;59249;59.736;30.568;2024-01-15T13:30:23;97806.00;;;-8.00
73937;BMP180;59249;59.736;30.568;2024-01-15T13:32:53;97799.00;;;-8.00
73937;BMP180;59249;59.736;30.568;2024-01-15T13:35:23;97809.00;;;-8.10
73937;BMP180;59249;59.736;30.568;2024-01-15T13:37:57;97804.00;;;-8.10
73937;BMP180;59249;59.736;30.568;2024-01-15T13:40:28;97802.00;;;-8.20
73937;BMP180;59249;59.736;30.568;2024-01-15T13:42:58;97804.00;;;-8.20
73937;BMP180;59249;59.736;30.568;2024-01-15T13:45:29;97813.00;;;-8.20
73937;BMP180;59249;59.736;30.568;2024-01-15T13:47:59;97806.00;;;-8.20
73937;BMP180;59249;59.736;30.568;2024-01-15T13:50:30;97803.00;;;-8.20
73937;BMP180;59249;59.736;30.568;2024-01-15T13:53:03;97804.00;;;-8.10
73937;BMP180;59249;59.736;30.568;2024-01-15T13:55:39;97809.00;;;-8.20
73937;BMP180;59249;59.736;30.568;2024-01-15T13:58:17;97806.00;;;-8.20
73937;BMP180;59249;59.736;30.568;2024-01-15T14:00:49;97800.00;;;-8.20
73937;BMP180;59249;59.736;30.568;2024-01-15T14:03:22;97802.00;;;-8.20
73937;BMP180;59249;59.736;30.568;2024-01-15T14:05:59;97795.00;;;-8.20
73937;BMP180;59249;59.736;30.568;2024-01-15T14:08:37;97799.00;;;-8.20
73937;BMP180;59249;59.736;30.568;2024-01-15T14:11:07;97810.00;;;-8.10
73937;BMP180;59249;59.736;30.568;2024-01-15T14:13:41;97796.00;;;-8.20
73937;BMP180;59249;59.736;30.568;2024-01-15T14:16:23;97803.00;;;-8.20